Ursvikens väder

stationens status  
Klimatstatistik

Klimatstatistik


Report for 2009 Jul
                   Monthly Climatological Summary for jul 2009

Name: Ursviken   City:    State: 
Elevation: 35 m  Lat: N 64° 42' 41"   Lon: E 021° 10' 44"

                  Temperature (°C), Rain (mm), Wind Speed (m/s)

                                      Heat  Cool        Avg
    Mean                              Deg   Deg         Wind                 Dom
Day Temp  High   Time   Low    Time   Days  Days  Rain  Speed High   Time    Dir
----------------------------------------------------------------------------------
 1  23,0  29,6   00:00  16,3   00:00   0,0   4,7   0,0   0,4   3,7   00:00   ---
 2  18,5  23,5   00:00  13,6   00:00   0,0   0,0   0,0   0,5   4,1   00:00   ---
 3  13,8  17,7   00:00   9,8   00:00   4,5   0,0   0,0   0,9   6,5   00:00   ---
 4  11,9  14,1   00:00   9,8   00:00   6,3   0,0   0,0   0,8   4,1   00:00   ---
 5  11,6  14,8   00:00   8,4   00:00   6,7   0,0   0,0   0,7   4,8   00:00   ---
 6  12,1  16,3   00:00   8,0   00:00   6,1   0,0   0,0   0,5   4,4   00:00   ---
 7   9,1   9,9   00:00   8,2   00:00   9,2   0,0   0,0   0,3   2,7   00:00   ---
 8  12,4  16,2   00:00   8,6   00:00   5,9   0,0   0,0   0,8   5,8   00:00   ---
 9  12,3  16,2   00:00   8,4   00:00   6,0   0,0   0,0   1,6   7,8   00:00   ---
10  15,8  18,5   00:00  13,1   00:00   2,5   0,0   0,0   0,8   4,1   00:00   ---
11  17,4  23,9   00:00  10,9   00:00   0,9   0,0   0,0   0,4   2,7   00:00   ---
12  15,4  20,2   00:00  10,6   00:00   2,9   0,0   0,0   0,2   3,7   00:00   ---
13  15,8  20,3   00:00  11,3   00:00   2,5   0,0   0,0   0,5   4,4   00:00   ---
14  18,3  27,7   00:00   8,9   00:00   0,0   0,0   0,0   0,4   3,7   00:00   ---
15  20,1  27,5   00:00  12,7   00:00   0,0   1,8   0,0   0,3   2,4   00:00   ---
16  18,1  23,6   00:00  12,6   00:00   0,2   0,0   0,0   0,3   3,1   00:00   ---
17  17,6  23,9   00:00  11,3   00:00   0,7   0,0   0,0   0,4   2,4   00:00   ---
18  14,3  20,5   00:00   8,0   00:00   4,0   0,0   0,0   0,7   5,1   00:00   ---
19  18,0  23,0   00:00  12,9   00:00   0,3   0,0  10,2   0,8   4,8   00:00   ---
20  16,3  20,4   00:00  12,2   00:00   6,6   0,0  10,2   1,0   4,8   00:00    NO
21  13,8  14,8   00:00  12,8   00:00   4,5   0,2  18,6   1,1   6,1   00:00   ---
22  15,1  19,5   00:00  10,6   00:00   3,2   0,0  15,6   0,4   4,1   00:00   ---
23  16,5  22,6   00:00  10,4   00:00  10,3   0,0   0,3   0,5   4,8   00:00   SSV
24  16,8  19,1   00:00  14,4   00:00   1,5   0,0   0,6   0,4   3,7   00:00   ---
25  16,2  17,3   00:00  15,1   00:00   2,1   0,0  11,1   0,7   5,1   00:00   ---
26  15,1  16,2   00:00  13,9   00:00  12,7   0,0  23,7   0,3   3,7   00:00    SV
27  16,6  20,7   00:00  12,5   00:00   1,7   0,0  19,5   0,5   4,1   00:00   ---
28  15,8  21,1   00:00  10,4   00:00   2,5   0,0   0,3   0,4   3,4   00:00   ---
29  20,1  27,3   00:00  13,0   00:00   0,0   0,0   0,3   0,4   3,4   00:00   ---
30  17,6  25,3   00:00  10,0   00:00   0,6   0,0   0,0   0,5   4,8   00:00   ---
31  16,4  21,8   00:00  11,0   00:00   1,9   0,0   0,0   0,5   3,4   00:00   ---
----------------------------------------------------------------------------------
    15,9  29,6     1     8,0     6   106,8   6,7 110,4   0,6   7,8     9       N

Max >=  20,0: 18
Max <=   0,0:  0
Min <=   0,0:  0
Min <= -20,0:  0
Max Rain: 23,7 on day 26
Days of Rain: 11 (>= 0,2 mm)  7 (>= 2,0 mm)  1 (>= 20,0 mm)
Heat Base: 18,3  Cool Base: 18,3  Method: Integration
 
: nu: mätare: diagram: idag och igår: månad och år: rekord: månadsrekord: statistik:
Startsidan Ursviken Örviken

Välkommen till Lundströms väder
Väderstationen som används är en WH1080, Uppdaterad 2024-06-13 15:15:01
skapad av Cumulus v1.9.4 (10992)
Forum
sedan 22 dec 2012